createdAt,value
2023-05-10T00:01:19.903Z,97169.69
2023-05-10T00:03:50.305Z,97167.41
2023-05-10T00:06:21.860Z,97160.34
2023-05-10T00:08:52.222Z,97160.59
2023-05-10T00:11:23.149Z,97173.22
2023-05-10T00:13:56.303Z,97154.97
2023-05-10T00:16:29.209Z,97170.72
2023-05-10T00:18:59.621Z,97160.84
2023-05-10T00:21:31.424Z,97159.59
2023-05-10T00:24:03.577Z,97166.44
2023-05-10T00:26:33.677Z,97159.88
2023-05-10T00:29:04.567Z,97158.34
2023-05-10T00:31:37.433Z,97166.19
2023-05-10T00:34:07.670Z,97159.13
2023-05-10T00:36:37.967Z,97160.63
2023-05-10T00:39:08.169Z,97142.69
2023-05-10T00:41:38.299Z,97153.56
2023-05-10T00:44:10.297Z,97159.91
2023-05-10T00:46:43.670Z,97157.06
2023-05-10T00:49:16.465Z,97145.97
2023-05-10T00:51:48.214Z,97152.28
2023-05-10T00:54:23.189Z,97152.81
2023-05-10T00:56:55.645Z,97140.19
2023-05-10T00:59:26.627Z,97147.25
2023-05-10T01:01:59.556Z,97142.69
2023-05-10T01:04:32.824Z,97146.75
2023-05-10T01:07:05.848Z,97137.16
2023-05-10T01:09:36.890Z,97126.53
2023-05-10T01:12:09.856Z,97142.44
2023-05-10T01:14:40.207Z,97133.88
2023-05-10T01:17:14.671Z,97127.78
2023-05-10T01:19:45.818Z,97135.38
2023-05-10T01:22:31.224Z,97127.28
2023-05-10T01:25:23.253Z,97128.28
2023-05-10T01:28:30.475Z,97128.31
2023-05-10T01:31:18.845Z,97128.84
2023-05-10T01:33:57.780Z,97130.84
2023-05-10T01:36:33.542Z,97135.16
2023-05-10T01:39:14.492Z,97131.84
2023-05-10T01:41:57.283Z,97124.28
2023-05-10T01:44:36.873Z,97118.72
2023-05-10T01:47:11.828Z,97121.75
2023-05-10T01:49:47.802Z,97114.66
2023-05-10T01:52:21.540Z,97114.66
2023-05-10T01:54:57.054Z,97118.47
2023-05-10T01:57:30.760Z,97118.69
2023-05-10T02:00:02.007Z,97122.22
2023-05-10T02:02:37.966Z,97131.59
2023-05-10T02:05:16.764Z,97143.72
2023-05-10T02:07:48.430Z,97149.03
2023-05-10T02:10:19.240Z,97151.50
2023-05-10T02:12:52.774Z,97148.25
2023-05-10T02:15:29.821Z,97153.75
2023-05-10T02:18:01.430Z,97151.47
2023-05-10T02:20:38.348Z,97152.00
2023-05-10T02:23:09.620Z,97159.84
2023-05-10T02:25:40.729Z,97155.56
2023-05-10T02:28:13.363Z,97152.53
2023-05-10T02:30:44.272Z,97143.97
2023-05-10T02:33:18.337Z,97147.00
2023-05-10T02:35:53.000Z,97142.69
2023-05-10T02:38:24.760Z,97148.78
2023-05-10T02:40:55.421Z,97151.56
2023-05-10T02:43:27.310Z,97146.78
2023-05-10T02:46:01.107Z,97139.44
2023-05-10T02:48:31.572Z,97149.28
2023-05-10T02:51:09.153Z,97146.25
2023-05-10T02:53:43.456Z,97149.03
2023-05-10T02:56:18.428Z,97149.78
2023-05-10T02:58:48.617Z,97143.97
2023-05-10T03:01:18.841Z,97141.19
2023-05-10T03:03:49.568Z,97147.00
2023-05-10T03:06:22.722Z,97151.03
2023-05-10T03:08:53.111Z,97140.41
2023-05-10T03:11:40.547Z,97147.22
2023-05-10T03:14:26.270Z,97148.97
2023-05-10T03:17:01.571Z,97161.88
2023-05-10T03:19:37.327Z,97185.47
2023-05-10T03:22:14.388Z,97178.66
2023-05-10T03:24:46.024Z,97172.88
2023-05-10T03:27:18.238Z,97180.91
2023-05-10T03:29:52.391Z,97183.41
2023-05-10T03:32:25.804Z,97181.22
2023-05-10T03:34:56.138Z,97184.56
2023-05-10T03:37:30.920Z,97183.59
2023-05-10T03:40:03.247Z,97178.03
2023-05-10T03:42:36.199Z,97182.88
2023-05-10T03:45:06.783Z,97184.34
2023-05-10T03:47:36.943Z,97188.63
2023-05-10T03:50:08.448Z,97184.63
2023-05-10T03:52:42.397Z,97186.69
2023-05-10T03:55:13.022Z,97174.59
2023-05-10T03:57:43.247Z,97167.53
2023-05-10T04:00:14.988Z,97164.53
2023-05-10T04:02:46.762Z,97169.09
2023-05-10T04:05:22.214Z,97159.81
2023-05-10T04:07:54.987Z,97163.63
2023-05-10T04:10:25.170Z,97151.28
2023-05-10T04:12:55.331Z,97152.53
2023-05-10T04:15:25.590Z,97144.97
2023-05-10T04:17:57.946Z,97145.97
2023-05-10T04:20:28.105Z,97142.94
2023-05-10T04:23:01.004Z,97142.44
2023-05-10T04:25:31.236Z,97134.13
2023-05-10T04:28:01.471Z,97149.00
2023-05-10T04:30:32.334Z,97149.03
2023-05-10T04:33:03.031Z,97151.81
2023-05-10T04:35:33.215Z,97154.59
2023-05-10T04:38:06.065Z,97143.72
2023-05-10T04:40:37.022Z,97144.75
2023-05-10T04:43:07.238Z,97143.72
2023-05-10T04:45:37.353Z,97140.94
2023-05-10T04:48:08.680Z,97141.44
2023-05-10T04:50:38.880Z,97138.44
2023-05-10T04:53:11.819Z,97152.34
2023-05-10T04:55:42.083Z,97153.09
2023-05-10T04:58:12.259Z,97144.25
2023-05-10T05:00:42.842Z,97142.22
2023-05-10T05:03:13.165Z,97139.41
2023-05-10T05:05:43.402Z,97148.75
2023-05-10T05:08:16.886Z,97150.28
2023-05-10T05:10:47.093Z,97144.97
2023-05-10T05:13:17.255Z,97132.28
2023-05-10T05:15:47.413Z,97154.56
2023-05-10T05:18:17.580Z,97152.53
2023-05-10T05:20:47.739Z,97145.19
2023-05-10T05:23:21.921Z,97156.31
2023-05-10T05:25:52.338Z,97153.00
2023-05-10T05:28:22.556Z,97150.19
2023-05-10T05:30:52.739Z,97142.78
2023-05-10T05:33:22.986Z,97142.56
2023-05-10T05:35:53.106Z,97143.72
2023-05-10T05:38:25.858Z,97144.16
2023-05-10T05:40:55.957Z,97139.97
2023-05-10T05:43:26.286Z,97143.75
2023-05-10T05:45:59.169Z,97146.00
2023-05-10T05:48:29.500Z,97136.47
2023-05-10T05:51:00.139Z,97151.06
2023-05-10T05:53:33.011Z,97147.78
2023-05-10T05:56:03.308Z,97163.13
2023-05-10T05:58:33.415Z,97148.88
2023-05-10T06:01:03.578Z,97149.59
2023-05-10T06:03:34.850Z,97147.38
2023-05-10T06:06:05.168Z,97157.09
2023-05-10T06:08:38.236Z,97174.22
2023-05-10T06:11:08.681Z,97164.41
2023-05-10T06:13:38.828Z,97168.16
2023-05-10T06:16:09.913Z,97173.78
2023-05-10T06:18:40.263Z,97184.50
2023-05-10T06:21:10.578Z,97173.59
2023-05-10T06:23:43.355Z,97174.56
2023-05-10T06:26:14.938Z,97174.16
2023-05-10T06:28:45.071Z,97173.19
2023-05-10T06:31:15.430Z,97174.78
2023-05-10T06:33:47.254Z,97178.56
2023-05-10T06:36:20.951Z,97172.19
2023-05-10T06:38:53.724Z,97171.94
2023-05-10T06:41:25.068Z,97170.56
2023-05-10T06:43:55.326Z,97180.88
2023-05-10T06:46:25.493Z,97170.94
2023-05-10T06:48:55.709Z,97173.97
2023-05-10T06:51:25.902Z,97174.59
2023-05-10T06:53:58.630Z,97183.91
2023-05-10T06:56:29.015Z,97183.16
2023-05-10T06:59:02.306Z,97173.09
2023-05-10T07:01:34.561Z,97182.25
2023-05-10T07:04:05.233Z,97172.06
2023-05-10T07:06:36.507Z,97173.34
2023-05-10T07:09:09.268Z,97177.66
2023-05-10T07:11:39.500Z,97180.59
2023-05-10T07:14:09.645Z,97184.53
2023-05-10T07:16:39.844Z,97183.25
2023-05-10T07:19:10.244Z,97176.91
2023-05-10T07:21:41.665Z,97193.28
2023-05-10T07:24:14.506Z,97183.50
2023-05-10T07:26:44.982Z,97194.88
2023-05-10T07:29:15.328Z,97186.81
2023-05-10T07:31:45.851Z,97193.69
2023-05-10T07:34:15.969Z,97198.38
2023-05-10T07:36:46.462Z,97190.13
2023-05-10T07:39:26.625Z,97193.72
2023-05-10T07:41:58.134Z,97197.34
2023-05-10T07:44:28.338Z,97200.91
2023-05-10T07:46:58.572Z,97209.63
2023-05-10T07:49:37.887Z,97206.75
2023-05-10T07:52:08.228Z,97201.00
2023-05-10T07:54:41.068Z,97201.22
2023-05-10T07:57:11.347Z,97230.63
2023-05-10T07:59:41.487Z,97214.22
2023-05-10T08:02:11.667Z,97216.50
2023-05-10T08:04:42.131Z,97219.69
2023-05-10T08:07:15.354Z,97228.75
2023-05-10T08:09:57.445Z,97230.66
2023-05-10T08:12:27.778Z,97230.59
2023-05-10T08:14:58.261Z,97230.47
2023-05-10T08:17:28.621Z,97244.44
2023-05-10T08:19:58.906Z,97238.50
2023-05-10T08:22:32.137Z,97238.44
2023-05-10T08:25:04.853Z,97251.16
2023-05-10T08:27:35.058Z,97253.13
2023-05-10T08:30:05.275Z,97250.31
2023-05-10T08:32:36.235Z,97251.09
2023-05-10T08:35:06.796Z,97256.59
2023-05-10T08:37:37.144Z,97259.03
2023-05-10T08:40:11.925Z,97267.50
2023-05-10T08:42:44.278Z,97265.72
2023-05-10T08:45:15.271Z,97268.19
2023-05-10T08:47:46.029Z,97262.75
2023-05-10T08:50:16.314Z,97264.06
2023-05-10T08:52:49.644Z,97264.19
2023-05-10T08:55:24.455Z,97281.09
2023-05-10T08:57:54.766Z,97266.88
2023-05-10T09:00:27.768Z,97275.84
2023-05-10T09:02:58.529Z,97275.56
2023-05-10T09:05:28.831Z,97276.78
2023-05-10T09:08:00.025Z,97283.03
2023-05-10T09:10:34.134Z,97289.44
2023-05-10T09:13:04.523Z,97284.91
2023-05-10T09:15:35.236Z,97292.00
2023-05-10T09:18:06.359Z,97294.97
2023-05-10T09:20:36.825Z,97296.94
2023-05-10T09:23:07.064Z,97308.72
2023-05-10T09:25:40.051Z,97314.19
2023-05-10T09:28:13.709Z,97321.38
2023-05-10T09:30:44.281Z,97321.25
2023-05-10T09:33:14.781Z,97331.81
2023-05-10T09:35:45.139Z,97331.75
2023-05-10T09:38:15.285Z,97331.66
2023-05-10T09:40:59.095Z,97333.50
2023-05-10T09:43:29.519Z,97324.13
2023-05-10T09:45:59.853Z,97328.00
2023-05-10T09:48:30.439Z,97331.81
2023-05-10T09:51:03.912Z,97342.88
2023-05-10T09:53:34.051Z,97340.09
2023-05-10T09:56:07.245Z,97339.88
2023-05-10T09:58:40.977Z,97341.22
2023-05-10T10:01:15.215Z,97346.63
2023-05-10T10:03:46.522Z,97342.50
2023-05-10T10:06:30.078Z,97347.88
2023-05-10T10:09:01.169Z,97347.09
2023-05-10T10:11:33.972Z,97345.34
2023-05-10T10:14:04.137Z,97350.16
2023-05-10T10:16:35.090Z,97354.72
2023-05-10T10:19:05.648Z,97353.25
2023-05-10T10:21:35.920Z,97351.88
2023-05-10T10:24:06.974Z,97351.63
2023-05-10T10:26:41.689Z,97354.09
2023-05-10T10:29:19.192Z,97353.50
2023-05-10T10:31:52.113Z,97343.69
2023-05-10T10:34:30.550Z,97351.97
2023-05-10T10:37:01.618Z,97352.97
2023-05-10T10:39:31.795Z,97348.81
2023-05-10T10:42:04.880Z,97345.81
2023-05-10T10:44:41.748Z,97349.19
2023-05-10T10:47:30.224Z,97354.00
2023-05-10T10:50:08.880Z,97360.88
2023-05-10T10:52:40.011Z,97347.41
2023-05-10T10:55:11.361Z,97353.81
2023-05-10T10:57:53.013Z,97355.56
2023-05-10T11:00:32.074Z,97362.66
2023-05-10T11:03:03.347Z,97365.13
2023-05-10T11:05:44.543Z,97361.38
2023-05-10T11:08:20.152Z,97364.72
2023-05-10T11:11:08.263Z,97368.78
2023-05-10T11:13:43.506Z,97363.69
2023-05-10T11:16:21.278Z,97365.97
2023-05-10T11:19:01.038Z,97374.09
2023-05-10T11:21:31.361Z,97364.41
2023-05-10T11:24:07.048Z,97375.06
2023-05-10T11:26:39.364Z,97371.59
2023-05-10T11:29:12.261Z,97375.84
2023-05-10T11:31:48.093Z,97379.81
2023-05-10T11:34:27.901Z,97378.84
2023-05-10T11:36:59.439Z,97391.84
2023-05-10T11:39:33.512Z,97384.97
2023-05-10T11:42:04.152Z,97388.50
2023-05-10T11:44:37.395Z,97391.31
2023-05-10T11:47:09.673Z,97398.06
2023-05-10T11:49:39.995Z,97401.34
2023-05-10T11:52:12.219Z,97405.69
2023-05-10T11:54:42.396Z,97412.03
2023-05-10T11:57:12.657Z,97405.78
2023-05-10T11:59:45.464Z,97416.44
2023-05-10T12:02:16.392Z,97412.63
2023-05-10T12:04:46.758Z,97411.34
2023-05-10T12:07:17.023Z,97415.66
2023-05-10T12:09:47.607Z,97411.59
2023-05-10T12:12:21.031Z,97415.41
2023-05-10T12:14:55.870Z,97413.63
2023-05-10T12:17:26.725Z,97420.69
2023-05-10T12:19:56.910Z,97417.63
2023-05-10T12:22:27.125Z,97423.19
2023-05-10T12:24:57.334Z,97424.91
2023-05-10T12:27:27.758Z,97421.81
2023-05-10T12:30:03.736Z,97418.47
2023-05-10T12:32:46.447Z,97420.00
2023-05-10T12:35:17.077Z,97430.72
2023-05-10T12:37:47.647Z,97431.25
2023-05-10T12:40:18.145Z,97430.19
2023-05-10T12:42:49.929Z,97433.00
2023-05-10T12:45:23.264Z,97432.97
2023-05-10T12:47:53.401Z,97433.19
2023-05-10T12:50:25.503Z,97434.25
2023-05-10T12:52:58.091Z,97437.06
2023-05-10T12:55:28.184Z,97430.69
2023-05-10T12:57:58.306Z,97431.69
2023-05-10T13:00:31.136Z,97440.28
2023-05-10T13:03:01.658Z,97430.00
2023-05-10T13:05:31.855Z,97428.97
2023-05-10T13:08:01.941Z,97435.06
2023-05-10T13:10:33.846Z,97423.19
2023-05-10T13:13:04.012Z,97427.44
2023-05-10T13:15:36.838Z,97425.03
2023-05-10T13:18:07.149Z,97419.03
2023-05-10T13:20:37.292Z,97423.28
2023-05-10T13:23:09.777Z,97418.94
2023-05-10T13:25:40.274Z,97419.41
2023-05-10T13:28:10.496Z,97415.38
2023-05-10T13:30:45.948Z,97410.47
2023-05-10T13:33:16.217Z,97416.13
2023-05-10T13:35:46.393Z,97414.53
2023-05-10T13:38:16.721Z,97416.13
2023-05-10T13:40:47.138Z,97413.63
2023-05-10T13:43:17.390Z,97417.00
2023-05-10T13:45:50.288Z,97414.09
2023-05-10T13:48:20.988Z,97413.88
2023-05-10T13:50:51.523Z,97408.63
2023-05-10T13:53:22.285Z,97409.09
2023-05-10T13:55:52.746Z,97405.69
2023-05-10T13:58:25.929Z,97406.09
2023-05-10T14:01:00.084Z,97404.34
2023-05-10T14:03:30.725Z,97403.53
2023-05-10T14:06:01.247Z,97405.56
2023-05-10T14:08:31.647Z,97397.94
2023-05-10T14:11:01.887Z,97400.91
2023-05-10T14:13:32.482Z,97399.31
2023-05-10T14:16:08.305Z,97403.09
2023-05-10T14:18:38.509Z,97398.59
2023-05-10T14:21:08.761Z,97404.59
2023-05-10T14:23:39.012Z,97400.28
2023-05-10T14:26:09.801Z,97401.47
2023-05-10T14:28:40.016Z,97406.41
2023-05-10T14:31:12.852Z,97398.84
2023-05-10T14:33:42.970Z,97398.59
2023-05-10T14:36:13.828Z,97400.81
2023-05-10T14:38:44.322Z,97396.22
2023-05-10T14:41:16.260Z,97398.09
2023-05-10T14:43:46.485Z,97391.78
2023-05-10T14:46:19.835Z,97396.97
2023-05-10T14:48:49.993Z,97399.41
2023-05-10T14:51:22.860Z,97399.28
2023-05-10T14:53:53.178Z,97394.75
2023-05-10T14:56:23.292Z,97401.44
2023-05-10T14:58:54.082Z,97397.78
2023-05-10T15:01:27.492Z,97392.63
2023-05-10T15:03:58.025Z,97395.59
2023-05-10T15:06:35.580Z,97399.09
2023-05-10T15:09:06.811Z,97401.56
2023-05-10T15:11:37.072Z,97399.09
2023-05-10T15:14:07.447Z,97400.56
2023-05-10T15:16:40.304Z,97399.81
2023-05-10T15:19:10.559Z,97407.66
2023-05-10T15:21:43.633Z,97402.44
2023-05-10T15:24:13.740Z,97397.91
2023-05-10T15:26:44.958Z,97410.84
2023-05-10T15:29:20.793Z,97409.09
2023-05-10T15:31:54.497Z,97409.16
2023-05-10T15:34:24.835Z,97409.69
2023-05-10T15:36:54.952Z,97412.50
2023-05-10T15:39:25.192Z,97405.63
2023-05-10T15:41:55.359Z,97411.03
2023-05-10T15:44:25.493Z,97409.44
2023-05-10T15:46:58.445Z,97406.34
2023-05-10T15:49:28.718Z,97417.72
2023-05-10T15:51:58.845Z,97411.34
2023-05-10T15:54:29.150Z,97415.69
2023-05-10T15:57:00.433Z,97418.41
2023-05-10T15:59:30.733Z,97412.34
2023-05-10T16:02:04.595Z,97408.63
2023-05-10T16:04:34.727Z,97418.47
2023-05-10T16:07:04.978Z,97409.84
2023-05-10T16:09:35.075Z,97408.69
2023-05-10T16:12:05.594Z,97404.72
2023-05-10T16:14:37.378Z,97403.72
2023-05-10T16:17:10.633Z,97409.84
2023-05-10T16:19:41.246Z,97410.16
2023-05-10T16:22:11.498Z,97408.56
2023-05-10T16:24:42.644Z,97409.56
2023-05-10T16:27:13.453Z,97408.19
2023-05-10T16:29:43.565Z,97410.22
2023-05-10T16:32:16.344Z,97408.50
2023-05-10T16:34:46.494Z,97407.25
2023-05-10T16:37:16.874Z,97409.09
2023-05-10T16:39:47.307Z,97413.50
2023-05-10T16:42:17.800Z,97413.44
2023-05-10T16:44:48.060Z,97411.50
2023-05-10T16:47:20.849Z,97417.44
2023-05-10T16:49:51.259Z,97414.38
2023-05-10T16:52:21.537Z,97421.03
2023-05-10T16:54:51.705Z,97413.47
2023-05-10T16:57:22.140Z,97418.00
2023-05-10T16:59:53.563Z,97422.88
2023-05-10T17:02:26.502Z,97426.13
2023-05-10T17:04:57.030Z,97430.31
2023-05-10T17:07:29.596Z,97423.19
2023-05-10T17:09:59.796Z,97425.41
2023-05-10T17:12:30.041Z,97424.97
2023-05-10T17:15:00.409Z,97424.97
2023-05-10T17:17:33.281Z,97428.28
2023-05-10T17:20:04.370Z,97435.91
2023-05-10T17:22:34.549Z,97439.84
2023-05-10T17:25:04.609Z,97430.22
2023-05-10T17:27:34.958Z,97440.31
2023-05-10T17:30:05.400Z,97440.53
2023-05-10T17:32:38.183Z,97433.41
2023-05-10T17:35:10.058Z,97438.75
2023-05-10T17:37:40.331Z,97442.31
2023-05-10T17:40:12.314Z,97442.34
2023-05-10T17:42:42.935Z,97446.94
2023-05-10T17:45:13.919Z,97446.41
2023-05-10T17:47:46.731Z,97439.06
2023-05-10T17:50:16.897Z,97445.69
2023-05-10T17:52:47.047Z,97448.22
2023-05-10T17:55:17.699Z,97455.09
2023-05-10T17:57:49.922Z,97454.59
2023-05-10T18:00:21.671Z,97455.19
2023-05-10T18:02:54.512Z,97445.53
2023-05-10T18:05:24.905Z,97450.91
2023-05-10T18:07:55.161Z,97452.16
2023-05-10T18:10:25.511Z,97450.34
2023-05-10T18:12:55.668Z,97463.78
2023-05-10T18:15:25.996Z,97454.38
2023-05-10T18:17:58.870Z,97454.88
2023-05-10T18:20:29.025Z,97461.16
2023-05-10T18:22:59.340Z,97459.66
2023-05-10T18:25:29.804Z,97457.41
2023-05-10T18:28:00.112Z,97464.50
2023-05-10T18:30:30.294Z,97466.25
2023-05-10T18:33:03.072Z,97468.25
2023-05-10T18:35:35.507Z,97470.56
2023-05-10T18:38:05.779Z,97470.06
2023-05-10T18:40:35.956Z,97471.06
2023-05-10T18:43:06.305Z,97469.81
2023-05-10T18:45:36.479Z,97476.41
2023-05-10T18:48:09.653Z,97476.16
2023-05-10T18:50:39.808Z,97482.00
2023-05-10T18:53:09.996Z,97482.72
2023-05-10T18:55:40.142Z,97478.66
2023-05-10T18:58:10.315Z,97492.63
2023-05-10T19:00:40.650Z,97498.97
2023-05-10T19:03:13.490Z,97496.16
2023-05-10T19:05:43.798Z,97495.41
2023-05-10T19:08:13.930Z,97501.53
2023-05-10T19:10:44.088Z,97505.56
2023-05-10T19:13:15.209Z,97506.34
2023-05-10T19:15:45.440Z,97514.00
2023-05-10T19:18:21.183Z,97507.88
2023-05-10T19:20:52.541Z,97515.22
2023-05-10T19:23:25.603Z,97516.25
2023-05-10T19:25:58.618Z,97513.22
2023-05-10T19:28:29.438Z,97520.34
2023-05-10T19:30:59.940Z,97514.25
2023-05-10T19:33:33.086Z,97517.28
2023-05-10T19:36:03.395Z,97517.28
2023-05-10T19:38:33.587Z,97522.88
2023-05-10T19:41:04.094Z,97517.28
2023-05-10T19:43:35.520Z,97523.38
2023-05-10T19:46:06.005Z,97523.63
2023-05-10T19:48:39.169Z,97511.44
2023-05-10T19:51:10.266Z,97525.97
2023-05-10T19:53:44.278Z,97522.41
2023-05-10T19:56:14.525Z,97521.09
2023-05-10T19:58:44.700Z,97522.66
2023-05-10T20:01:14.898Z,97523.16
2023-05-10T20:03:47.842Z,97526.50
2023-05-10T20:06:18.037Z,97520.91
2023-05-10T20:08:48.228Z,97527.47
2023-05-10T20:11:18.422Z,97521.38
2023-05-10T20:13:48.839Z,97524.69
2023-05-10T20:16:19.000Z,97529.31
2023-05-10T20:18:53.705Z,97533.63
2023-05-10T20:21:26.674Z,97541.00
2023-05-10T20:23:56.915Z,97541.50
2023-05-10T20:26:27.092Z,97534.19
2023-05-10T20:28:57.189Z,97550.91
2023-05-10T20:31:27.419Z,97552.41
2023-05-10T20:34:00.207Z,97551.41
2023-05-10T20:36:30.419Z,97550.16
2023-05-10T20:39:00.545Z,97553.69
2023-05-10T20:41:30.734Z,97548.38
2023-05-10T20:44:00.882Z,97548.91
2023-05-10T20:46:31.152Z,97547.59
2023-05-10T20:49:04.414Z,97547.09
2023-05-10T20:51:34.543Z,97539.97
2023-05-10T20:54:05.050Z,97543.53
2023-05-10T20:56:35.303Z,97544.28
2023-05-10T20:59:05.511Z,97545.03
2023-05-10T21:01:35.872Z,97539.72
2023-05-10T21:04:08.778Z,97548.59
2023-05-10T21:06:39.260Z,97540.22
2023-05-10T21:09:10.000Z,97540.50
2023-05-10T21:11:40.529Z,97541.78
2023-05-10T21:14:10.836Z,97536.41
2023-05-10T21:16:41.471Z,97534.66
2023-05-10T21:19:14.867Z,97529.59
2023-05-10T21:21:45.030Z,97531.88
2023-05-10T21:24:15.521Z,97540.00
2023-05-10T21:26:45.700Z,97535.66
2023-05-10T21:29:15.888Z,97533.91
2023-05-10T21:31:46.059Z,97540.25
2023-05-10T21:34:18.865Z,97540.25
2023-05-10T21:36:49.063Z,97537.44
2023-05-10T21:39:19.293Z,97540.00
2023-05-10T21:41:49.452Z,97543.31
2023-05-10T21:44:19.893Z,97547.91
2023-05-10T21:46:50.043Z,97547.41
2023-05-10T21:49:22.860Z,97545.09
2023-05-10T21:51:53.513Z,97549.41
2023-05-10T21:54:23.852Z,97550.94
2023-05-10T21:56:54.051Z,97551.69
2023-05-10T21:59:24.329Z,97550.19
2023-05-10T22:01:54.522Z,97547.91
2023-05-10T22:04:27.372Z,97552.22
2023-05-10T22:06:57.618Z,97547.41
2023-05-10T22:09:27.796Z,97553.22
2023-05-10T22:11:57.944Z,97543.31
2023-05-10T22:14:28.154Z,97541.53
2023-05-10T22:16:58.442Z,97545.34
2023-05-10T22:19:31.188Z,97546.34
2023-05-10T22:22:01.349Z,97556.00
2023-05-10T22:24:31.624Z,97558.78
2023-05-10T22:27:02.057Z,97548.41
2023-05-10T22:29:32.653Z,97554.78
2023-05-10T22:32:05.853Z,97553.00
2023-05-10T22:34:39.064Z,97559.09
2023-05-10T22:37:09.256Z,97549.44
2023-05-10T22:39:39.388Z,97549.69
2023-05-10T22:42:09.560Z,97553.00
2023-05-10T22:44:39.902Z,97553.00
2023-05-10T22:47:10.093Z,97559.59
2023-05-10T22:49:42.913Z,97547.19
2023-05-10T22:52:13.419Z,97554.03
2023-05-10T22:54:44.504Z,97554.03
2023-05-10T22:57:15.333Z,97553.00
2023-05-10T22:59:45.553Z,97548.72
2023-05-10T23:02:16.431Z,97554.03
2023-05-10T23:04:49.455Z,97553.78
2023-05-10T23:07:19.695Z,97556.06
2023-05-10T23:09:50.870Z,97553.75
2023-05-10T23:12:21.243Z,97552.00
2023-05-10T23:14:55.149Z,97551.22
2023-05-10T23:17:26.029Z,97549.66
2023-05-10T23:19:59.466Z,97550.22
2023-05-10T23:22:30.352Z,97548.91
2023-05-10T23:25:01.328Z,97547.91
2023-05-10T23:27:32.864Z,97542.84
2023-05-10T23:30:06.048Z,97544.63
2023-05-10T23:32:36.855Z,97551.22
2023-05-10T23:35:11.926Z,97546.91
2023-05-10T23:37:42.678Z,97559.88
2023-05-10T23:40:14.383Z,97553.53
2023-05-10T23:42:44.589Z,97545.91
2023-05-10T23:45:15.133Z,97544.63
2023-05-10T23:47:45.346Z,97540.81
2023-05-10T23:50:18.437Z,97533.72
2023-05-10T23:52:49.047Z,97541.84
2023-05-10T23:55:19.572Z,97526.13
2023-05-10T23:57:52.577Z,97534.50
